sensor_id;sensor_type;location;lat;lon;timestamp;P1;durP1;ratioP1;P2;durP2;ratioP2
13291;SDS011;6714;53.056;8.690;2022-07-22T00:00:31;1.80;;;1.70;;
13291;SDS011;6714;53.056;8.690;2022-07-22T00:03:14;1.70;;;1.60;;
13291;SDS011;6714;53.056;8.690;2022-07-22T00:05:56;1.33;;;1.23;;
13291;SDS011;6714;53.056;8.690;2022-07-22T00:08:38;2.40;;;1.53;;
13291;SDS011;6714;53.056;8.690;2022-07-22T00:11:22;1.60;;;1.50;;
13291;SDS011;6714;53.056;8.690;2022-07-22T00:14:05;2.23;;;1.70;;
13291;SDS011;6714;53.056;8.690;2022-07-22T00:16:48;1.50;;;1.40;;
13291;SDS011;6714;53.056;8.690;2022-07-22T00:19:30;2.00;;;1.87;;
13291;SDS011;6714;53.056;8.690;2022-07-22T00:22:12;1.93;;;1.83;;
13291;SDS011;6714;53.056;8.690;2022-07-22T00:24:54;2.70;;;2.50;;
13291;SDS011;6714;53.056;8.690;2022-07-22T00:27:38;2.40;;;2.20;;
13291;SDS011;6714;53.056;8.690;2022-07-22T00:30:20;3.60;;;1.70;;
13291;SDS011;6714;53.056;8.690;2022-07-22T00:33:02;2.73;;;2.43;;
13291;SDS011;6714;53.056;8.690;2022-07-22T00:35:45;1.80;;;1.70;;
13291;SDS011;6714;53.056;8.690;2022-07-22T00:38:27;2.67;;;2.47;;
13291;SDS011;6714;53.056;8.690;2022-07-22T00:41:09;1.60;;;1.50;;
13291;SDS011;6714;53.056;8.690;2022-07-22T00:43:54;2.20;;;2.00;;
13291;SDS011;6714;53.056;8.690;2022-07-22T00:46:36;2.60;;;2.40;;
13291;SDS011;6714;53.056;8.690;2022-07-22T00:49:19;1.43;;;1.43;;
13291;SDS011;6714;53.056;8.690;2022-07-22T00:52:01;2.57;;;2.40;;
13291;SDS011;6714;53.056;8.690;2022-07-22T00:54:44;2.13;;;1.90;;
13291;SDS011;6714;53.056;8.690;2022-07-22T00:57:26;2.50;;;2.30;;
13291;SDS011;6714;53.056;8.690;2022-07-22T01:00:11;1.90;;;1.80;;
13291;SDS011;6714;53.056;8.690;2022-07-22T01:02:54;2.10;;;1.77;;
13291;SDS011;6714;53.056;8.690;2022-07-22T01:05:36;2.07;;;1.70;;
13291;SDS011;6714;53.056;8.690;2022-07-22T01:08:18;3.23;;;2.40;;
13291;SDS011;6714;53.056;8.690;2022-07-22T01:11:07;2.40;;;2.10;;
13291;SDS011;6714;53.056;8.690;2022-07-22T01:13:50;2.53;;;2.03;;
13291;SDS011;6714;53.056;8.690;2022-07-22T01:16:33;1.80;;;1.70;;
13291;SDS011;6714;53.056;8.690;2022-07-22T01:19:16;2.17;;;1.70;;
13291;SDS011;6714;53.056;8.690;2022-07-22T01:22:00;1.70;;;1.50;;
13291;SDS011;6714;53.056;8.690;2022-07-22T01:24:42;2.07;;;1.77;;
13291;SDS011;6714;53.056;8.690;2022-07-22T01:27:24;1.83;;;1.47;;
13291;SDS011;6714;53.056;8.690;2022-07-22T01:30:07;2.33;;;1.83;;
13291;SDS011;6714;53.056;8.690;2022-07-22T01:32:49;1.73;;;1.57;;
13291;SDS011;6714;53.056;8.690;2022-07-22T01:35:31;1.57;;;1.20;;
13291;SDS011;6714;53.056;8.690;2022-07-22T01:38:15;2.73;;;1.60;;
13291;SDS011;6714;53.056;8.690;2022-07-22T01:40:57;1.53;;;1.43;;
13291;SDS011;6714;53.056;8.690;2022-07-22T01:43:40;1.23;;;1.13;;
13291;SDS011;6714;53.056;8.690;2022-07-22T01:46:22;2.27;;;1.23;;
13291;SDS011;6714;53.056;8.690;2022-07-22T01:49:04;2.00;;;1.40;;
13291;SDS011;6714;53.056;8.690;2022-07-22T01:51:46;1.43;;;1.20;;
13291;SDS011;6714;53.056;8.690;2022-07-22T01:54:30;1.80;;;1.30;;
13291;SDS011;6714;53.056;8.690;2022-07-22T01:57:12;1.30;;;1.20;;
13291;SDS011;6714;53.056;8.690;2022-07-22T01:59:54;1.00;;;1.00;;
13291;SDS011;6714;53.056;8.690;2022-07-22T02:02:37;1.40;;;1.30;;
13291;SDS011;6714;53.056;8.690;2022-07-22T02:05:19;1.13;;;1.07;;
13291;SDS011;6714;53.056;8.690;2022-07-22T02:08:01;1.13;;;1.00;;
13291;SDS011;6714;53.056;8.690;2022-07-22T02:10:45;1.53;;;1.10;;
13291;SDS011;6714;53.056;8.690;2022-07-22T02:13:27;1.30;;;1.20;;
13291;SDS011;6714;53.056;8.690;2022-07-22T02:16:09;1.63;;;1.17;;
13291;SDS011;6714;53.056;8.690;2022-07-22T02:18:51;1.60;;;1.30;;
13291;SDS011;6714;53.056;8.690;2022-07-22T02:21:33;1.47;;;1.10;;
13291;SDS011;6714;53.056;8.690;2022-07-22T02:24:16;2.30;;;1.30;;
13291;SDS011;6714;53.056;8.690;2022-07-22T02:27:00;1.23;;;1.00;;
13291;SDS011;6714;53.056;8.690;2022-07-22T02:29:43;1.00;;;1.00;;
13291;SDS011;6714;53.056;8.690;2022-07-22T02:32:26;1.13;;;1.03;;
13291;SDS011;6714;53.056;8.690;2022-07-22T02:35:08;1.20;;;1.10;;
13291;SDS011;6714;53.056;8.690;2022-07-22T02:37:50;1.47;;;1.10;;
13291;SDS011;6714;53.056;8.690;2022-07-22T02:40:33;1.00;;;1.00;;
13291;SDS011;6714;53.056;8.690;2022-07-22T02:43:16;1.57;;;1.00;;
13291;SDS011;6714;53.056;8.690;2022-07-22T02:45:58;0.70;;;0.70;;
13291;SDS011;6714;53.056;8.690;2022-07-22T02:48:40;2.63;;;1.10;;
13291;SDS011;6714;53.056;8.690;2022-07-22T02:51:23;1.30;;;1.20;;
13291;SDS011;6714;53.056;8.690;2022-07-22T02:54:06;2.53;;;1.10;;
13291;SDS011;6714;53.056;8.690;2022-07-22T02:56:48;1.50;;;1.00;;
13291;SDS011;6714;53.056;8.690;2022-07-22T02:59:31;2.00;;;1.10;;
13291;SDS011;6714;53.056;8.690;2022-07-22T03:02:14;2.43;;;1.47;;
13291;SDS011;6714;53.056;8.690;2022-07-22T03:04:56;1.20;;;1.10;;
13291;SDS011;6714;53.056;8.690;2022-07-22T03:07:38;1.10;;;1.00;;
13291;SDS011;6714;53.056;8.690;2022-07-22T03:10:20;2.33;;;1.10;;
13291;SDS011;6714;53.056;8.690;2022-07-22T03:13:03;2.77;;;1.20;;
13291;SDS011;6714;53.056;8.690;2022-07-22T03:15:46;2.10;;;1.10;;
13291;SDS011;6714;53.056;8.690;2022-07-22T03:18:28;1.90;;;1.40;;
13291;SDS011;6714;53.056;8.690;2022-07-22T03:21:11;1.03;;;1.03;;
13291;SDS011;6714;53.056;8.690;2022-07-22T03:23:53;1.73;;;1.30;;
13291;SDS011;6714;53.056;8.690;2022-07-22T03:26:35;1.63;;;1.30;;
13291;SDS011;6714;53.056;8.690;2022-07-22T03:29:17;1.83;;;1.13;;
13291;SDS011;6714;53.056;8.690;2022-07-22T03:32:00;3.07;;;1.50;;
13291;SDS011;6714;53.056;8.690;2022-07-22T03:34:43;1.00;;;0.90;;
13291;SDS011;6714;53.056;8.690;2022-07-22T03:37:25;1.33;;;1.20;;
13291;SDS011;6714;53.056;8.690;2022-07-22T03:40:07;1.37;;;1.10;;
13291;SDS011;6714;53.056;8.690;2022-07-22T03:42:50;2.17;;;1.37;;
13291;SDS011;6714;53.056;8.690;2022-07-22T03:45:32;3.10;;;1.47;;
13291;SDS011;6714;53.056;8.690;2022-07-22T03:48:15;1.70;;;1.20;;
13291;SDS011;6714;53.056;8.690;2022-07-22T03:50:58;2.93;;;1.47;;
13291;SDS011;6714;53.056;8.690;2022-07-22T03:53:40;2.37;;;1.27;;
13291;SDS011;6714;53.056;8.690;2022-07-22T03:56:22;3.90;;;1.20;;
13291;SDS011;6714;53.056;8.690;2022-07-22T03:59:04;2.50;;;1.50;;
13291;SDS011;6714;53.056;8.690;2022-07-22T04:01:46;1.60;;;1.50;;
13291;SDS011;6714;53.056;8.690;2022-07-22T04:04:30;3.17;;;1.57;;
13291;SDS011;6714;53.056;8.690;2022-07-22T04:07:12;2.17;;;1.47;;
13291;SDS011;6714;53.056;8.690;2022-07-22T04:09:54;1.27;;;1.17;;
13291;SDS011;6714;53.056;8.690;2022-07-22T04:12:44;2.07;;;1.30;;
13291;SDS011;6714;53.056;8.690;2022-07-22T04:15:27;3.60;;;1.27;;
13291;SDS011;6714;53.056;8.690;2022-07-22T04:18:09;1.20;;;1.10;;
13291;SDS011;6714;53.056;8.690;2022-07-22T04:20:52;1.60;;;1.13;;
13291;SDS011;6714;53.056;8.690;2022-07-22T04:23:35;1.67;;;1.30;;
13291;SDS011;6714;53.056;8.690;2022-07-22T04:26:19;2.33;;;1.27;;
13291;SDS011;6714;53.056;8.690;2022-07-22T04:29:02;2.30;;;1.50;;
13291;SDS011;6714;53.056;8.690;2022-07-22T04:31:44;1.17;;;1.10;;
13291;SDS011;6714;53.056;8.690;2022-07-22T04:34:26;1.90;;;1.10;;
13291;SDS011;6714;53.056;8.690;2022-07-22T04:37:10;2.83;;;1.40;;
13291;SDS011;6714;53.056;8.690;2022-07-22T04:39:52;1.33;;;1.23;;
13291;SDS011;6714;53.056;8.690;2022-07-22T04:42:34;1.40;;;1.30;;
13291;SDS011;6714;53.056;8.690;2022-07-22T04:45:16;2.07;;;1.60;;
13291;SDS011;6714;53.056;8.690;2022-07-22T04:47:58;1.53;;;1.43;;
13291;SDS011;6714;53.056;8.690;2022-07-22T04:50:41;2.60;;;1.40;;
13291;SDS011;6714;53.056;8.690;2022-07-22T04:53:24;1.30;;;1.23;;
13291;SDS011;6714;53.056;8.690;2022-07-22T04:56:07;1.30;;;1.20;;
13291;SDS011;6714;53.056;8.690;2022-07-22T04:58:49;1.50;;;1.40;;
13291;SDS011;6714;53.056;8.690;2022-07-22T05:01:31;2.40;;;1.40;;
13291;SDS011;6714;53.056;8.690;2022-07-22T05:04:14;1.43;;;1.33;;
13291;SDS011;6714;53.056;8.690;2022-07-22T05:06:56;2.83;;;1.70;;
13291;SDS011;6714;53.056;8.690;2022-07-22T05:09:39;3.77;;;1.30;;
13291;SDS011;6714;53.056;8.690;2022-07-22T05:12:21;2.97;;;1.60;;
13291;SDS011;6714;53.056;8.690;2022-07-22T05:15:04;6.33;;;1.93;;
13291;SDS011;6714;53.056;8.690;2022-07-22T05:17:46;1.50;;;1.40;;
13291;SDS011;6714;53.056;8.690;2022-07-22T05:20:28;2.43;;;1.10;;
13291;SDS011;6714;53.056;8.690;2022-07-22T05:23:11;1.77;;;1.40;;
13291;SDS011;6714;53.056;8.690;2022-07-22T05:25:54;3.27;;;1.47;;
13291;SDS011;6714;53.056;8.690;2022-07-22T05:28:36;2.70;;;1.77;;
13291;SDS011;6714;53.056;8.690;2022-07-22T05:31:19;2.50;;;1.63;;
13291;SDS011;6714;53.056;8.690;2022-07-22T05:34:01;2.13;;;1.57;;
13291;SDS011;6714;53.056;8.690;2022-07-22T05:36:44;2.83;;;1.70;;
13291;SDS011;6714;53.056;8.690;2022-07-22T05:39:26;3.43;;;1.80;;
13291;SDS011;6714;53.056;8.690;2022-07-22T05:42:09;3.37;;;1.80;;
13291;SDS011;6714;53.056;8.690;2022-07-22T05:44:51;2.93;;;1.70;;
13291;SDS011;6714;53.056;8.690;2022-07-22T05:47:34;3.07;;;1.90;;
13291;SDS011;6714;53.056;8.690;2022-07-22T05:50:16;2.53;;;1.47;;
13291;SDS011;6714;53.056;8.690;2022-07-22T05:52:58;3.67;;;1.70;;
13291;SDS011;6714;53.056;8.690;2022-07-22T05:55:40;7.97;;;2.03;;
13291;SDS011;6714;53.056;8.690;2022-07-22T05:58:24;2.77;;;1.70;;
13291;SDS011;6714;53.056;8.690;2022-07-22T06:01:06;4.57;;;1.60;;
13291;SDS011;6714;53.056;8.690;2022-07-22T06:03:49;2.57;;;1.40;;
13291;SDS011;6714;53.056;8.690;2022-07-22T06:06:31;1.97;;;1.63;;
13291;SDS011;6714;53.056;8.690;2022-07-22T06:09:13;4.03;;;1.73;;
13291;SDS011;6714;53.056;8.690;2022-07-22T06:11:55;2.00;;;1.70;;
13291;SDS011;6714;53.056;8.690;2022-07-22T06:14:39;2.80;;;1.53;;
13291;SDS011;6714;53.056;8.690;2022-07-22T06:17:21;3.33;;;2.00;;
13291;SDS011;6714;53.056;8.690;2022-07-22T06:20:04;4.33;;;2.00;;
13291;SDS011;6714;53.056;8.690;2022-07-22T06:22:46;2.23;;;1.40;;
13291;SDS011;6714;53.056;8.690;2022-07-22T06:25:28;2.70;;;1.70;;
13291;SDS011;6714;53.056;8.690;2022-07-22T06:28:10;1.43;;;1.33;;
13291;SDS011;6714;53.056;8.690;2022-07-22T06:30:54;1.50;;;1.37;;
13291;SDS011;6714;53.056;8.690;2022-07-22T06:33:36;3.50;;;1.67;;
13291;SDS011;6714;53.056;8.690;2022-07-22T06:36:18;5.13;;;2.07;;
13291;SDS011;6714;53.056;8.690;2022-07-22T06:39:01;3.40;;;1.70;;
13291;SDS011;6714;53.056;8.690;2022-07-22T06:41:43;2.97;;;1.90;;
13291;SDS011;6714;53.056;8.690;2022-07-22T06:44:25;3.80;;;1.93;;
13291;SDS011;6714;53.056;8.690;2022-07-22T06:47:08;2.83;;;1.77;;
13291;SDS011;6714;53.056;8.690;2022-07-22T06:49:51;2.80;;;1.67;;
13291;SDS011;6714;53.056;8.690;2022-07-22T06:52:33;4.47;;;1.83;;
13291;SDS011;6714;53.056;8.690;2022-07-22T06:55:15;4.33;;;1.87;;
13291;SDS011;6714;53.056;8.690;2022-07-22T06:57:57;1.70;;;1.30;;
13291;SDS011;6714;53.056;8.690;2022-07-22T07:00:40;1.13;;;1.10;;
13291;SDS011;6714;53.056;8.690;2022-07-22T07:03:23;2.67;;;1.47;;
13291;SDS011;6714;53.056;8.690;2022-07-22T07:06:06;2.77;;;1.77;;
13291;SDS011;6714;53.056;8.690;2022-07-22T07:08:48;2.70;;;1.90;;
13291;SDS011;6714;53.056;8.690;2022-07-22T07:11:30;2.70;;;1.80;;
13291;SDS011;6714;53.056;8.690;2022-07-22T07:14:13;4.27;;;2.23;;
13291;SDS011;6714;53.056;8.690;2022-07-22T07:16:55;3.43;;;1.83;;
13291;SDS011;6714;53.056;8.690;2022-07-22T07:19:38;2.00;;;1.47;;
13291;SDS011;6714;53.056;8.690;2022-07-22T07:22:21;1.97;;;1.57;;
13291;SDS011;6714;53.056;8.690;2022-07-22T07:25:03;6.33;;;2.30;;
13291;SDS011;6714;53.056;8.690;2022-07-22T07:27:45;2.97;;;1.47;;
13291;SDS011;6714;53.056;8.690;2022-07-22T07:30:27;2.77;;;1.50;;
13291;SDS011;6714;53.056;8.690;2022-07-22T07:33:10;4.30;;;1.80;;
13291;SDS011;6714;53.056;8.690;2022-07-22T07:35:53;1.93;;;1.67;;
13291;SDS011;6714;53.056;8.690;2022-07-22T07:38:35;2.77;;;2.00;;
13291;SDS011;6714;53.056;8.690;2022-07-22T07:41:17;4.70;;;2.20;;
13291;SDS011;6714;53.056;8.690;2022-07-22T07:44:00;4.37;;;1.93;;
13291;SDS011;6714;53.056;8.690;2022-07-22T07:46:43;4.87;;;1.90;;
13291;SDS011;6714;53.056;8.690;2022-07-22T07:49:26;2.13;;;1.70;;
13291;SDS011;6714;53.056;8.690;2022-07-22T07:52:09;3.10;;;1.67;;
13291;SDS011;6714;53.056;8.690;2022-07-22T07:54:52;1.90;;;1.70;;
13291;SDS011;6714;53.056;8.690;2022-07-22T07:57:35;2.87;;;1.80;;
13291;SDS011;6714;53.056;8.690;2022-07-22T08:00:22;1.50;;;1.40;;
13291;SDS011;6714;53.056;8.690;2022-07-22T08:03:06;3.23;;;1.70;;
13291;SDS011;6714;53.056;8.690;2022-07-22T08:05:49;2.23;;;1.70;;
13291;SDS011;6714;53.056;8.690;2022-07-22T08:08:32;4.30;;;1.60;;
13291;SDS011;6714;53.056;8.690;2022-07-22T08:11:14;2.07;;;1.40;;
13291;SDS011;6714;53.056;8.690;2022-07-22T08:13:56;1.93;;;1.57;;
13291;SDS011;6714;53.056;8.690;2022-07-22T08:16:38;2.57;;;1.80;;
13291;SDS011;6714;53.056;8.690;2022-07-22T08:19:21;1.93;;;1.30;;
13291;SDS011;6714;53.056;8.690;2022-07-22T08:22:03;1.93;;;1.50;;
13291;SDS011;6714;53.056;8.690;2022-07-22T08:24:46;2.10;;;1.50;;
13291;SDS011;6714;53.056;8.690;2022-07-22T08:27:28;2.40;;;1.40;;
13291;SDS011;6714;53.056;8.690;2022-07-22T08:30:11;2.83;;;1.80;;
13291;SDS011;6714;53.056;8.690;2022-07-22T08:32:54;1.30;;;1.30;;
13291;SDS011;6714;53.056;8.690;2022-07-22T08:35:36;1.70;;;1.23;;
13291;SDS011;6714;53.056;8.690;2022-07-22T08:38:18;2.67;;;1.60;;
13291;SDS011;6714;53.056;8.690;2022-07-22T08:41:02;3.57;;;1.60;;
13291;SDS011;6714;53.056;8.690;2022-07-22T08:43:45;3.87;;;1.53;;
13291;SDS011;6714;53.056;8.690;2022-07-22T08:46:28;2.30;;;1.70;;
13291;SDS011;6714;53.056;8.690;2022-07-22T08:49:12;1.60;;;1.50;;
13291;SDS011;6714;53.056;8.690;2022-07-22T08:51:54;2.30;;;1.30;;
13291;SDS011;6714;53.056;8.690;2022-07-22T08:54:36;2.03;;;1.53;;
13291;SDS011;6714;53.056;8.690;2022-07-22T08:57:20;2.67;;;1.70;;
13291;SDS011;6714;53.056;8.690;2022-07-22T09:00:07;1.50;;;1.30;;
13291;SDS011;6714;53.056;8.690;2022-07-22T09:02:50;3.27;;;1.80;;
13291;SDS011;6714;53.056;8.690;2022-07-22T09:05:33;2.07;;;1.33;;
13291;SDS011;6714;53.056;8.690;2022-07-22T09:08:15;2.57;;;1.47;;
13291;SDS011;6714;53.056;8.690;2022-07-22T09:10:58;2.10;;;1.30;;
13291;SDS011;6714;53.056;8.690;2022-07-22T09:13:42;2.03;;;1.57;;
13291;SDS011;6714;53.056;8.690;2022-07-22T09:16:40;2.50;;;1.57;;
13291;SDS011;6714;53.056;8.690;2022-07-22T09:19:24;2.17;;;1.53;;
13291;SDS011;6714;53.056;8.690;2022-07-22T09:22:12;1.87;;;1.60;;
13291;SDS011;6714;53.056;8.690;2022-07-22T09:24:54;2.63;;;1.33;;
13291;SDS011;6714;53.056;8.690;2022-07-22T09:27:37;1.73;;;1.50;;
13291;SDS011;6714;53.056;8.690;2022-07-22T09:30:21;1.50;;;1.30;;
13291;SDS011;6714;53.056;8.690;2022-07-22T09:33:03;1.37;;;1.27;;
13291;SDS011;6714;53.056;8.690;2022-07-22T09:35:46;1.40;;;1.30;;
13291;SDS011;6714;53.056;8.690;2022-07-22T09:38:29;1.70;;;1.60;;
13291;SDS011;6714;53.056;8.690;2022-07-22T09:41:14;1.63;;;1.43;;
13291;SDS011;6714;53.056;8.690;2022-07-22T09:43:56;4.67;;;1.60;;
13291;SDS011;6714;53.056;8.690;2022-07-22T09:46:40;2.80;;;1.50;;
13291;SDS011;6714;53.056;8.690;2022-07-22T09:49:32;1.47;;;1.37;;
13291;SDS011;6714;53.056;8.690;2022-07-22T09:52:14;1.47;;;1.37;;
13291;SDS011;6714;53.056;8.690;2022-07-22T09:54:56;1.60;;;1.30;;
13291;SDS011;6714;53.056;8.690;2022-07-22T09:57:39;2.60;;;1.53;;
13291;SDS011;6714;53.056;8.690;2022-07-22T10:00:22;1.83;;;1.33;;
13291;SDS011;6714;53.056;8.690;2022-07-22T10:03:06;2.33;;;1.50;;
13291;SDS011;6714;53.056;8.690;2022-07-22T10:05:49;2.77;;;1.80;;
13291;SDS011;6714;53.056;8.690;2022-07-22T10:08:32;2.93;;;1.80;;
13291;SDS011;6714;53.056;8.690;2022-07-22T10:11:14;1.67;;;1.47;;
13291;SDS011;6714;53.056;8.690;2022-07-22T10:13:56;2.20;;;1.70;;
13291;SDS011;6714;53.056;8.690;2022-07-22T10:16:39;1.90;;;1.30;;
13291;SDS011;6714;53.056;8.690;2022-07-22T10:19:23;1.83;;;1.73;;
13291;SDS011;6714;53.056;8.690;2022-07-22T10:22:05;1.23;;;1.20;;
13291;SDS011;6714;53.056;8.690;2022-07-22T10:25:08;1.70;;;1.50;;
13291;SDS011;6714;53.056;8.690;2022-07-22T10:27:51;3.23;;;1.60;;
13291;SDS011;6714;53.056;8.690;2022-07-22T10:30:34;1.27;;;1.17;;
13291;SDS011;6714;53.056;8.690;2022-07-22T10:33:18;1.63;;;1.50;;
13291;SDS011;6714;53.056;8.690;2022-07-22T10:36:03;1.10;;;1.10;;
13291;SDS011;6714;53.056;8.690;2022-07-22T10:41:42;1.20;;;1.10;;
13291;SDS011;6714;53.056;8.690;2022-07-22T10:50:39;2.03;;;1.50;;
13291;SDS011;6714;53.056;8.690;2022-07-22T10:53:24;1.70;;;1.40;;
13291;SDS011;6714;53.056;8.690;2022-07-22T10:56:11;2.03;;;1.50;;
13291;SDS011;6714;53.056;8.690;2022-07-22T10:59:07;1.40;;;1.30;;
13291;SDS011;6714;53.056;8.690;2022-07-22T11:01:51;1.73;;;1.33;;
13291;SDS011;6714;53.056;8.690;2022-07-22T11:04:34;2.00;;;1.60;;
13291;SDS011;6714;53.056;8.690;2022-07-22T11:07:16;2.70;;;1.50;;
13291;SDS011;6714;53.056;8.690;2022-07-22T11:10:09;1.63;;;1.50;;
13291;SDS011;6714;53.056;8.690;2022-07-22T11:12:51;1.47;;;1.37;;
13291;SDS011;6714;53.056;8.690;2022-07-22T11:15:33;1.83;;;1.40;;
13291;SDS011;6714;53.056;8.690;2022-07-22T11:18:16;1.77;;;1.40;;
13291;SDS011;6714;53.056;8.690;2022-07-22T11:20:58;1.57;;;1.47;;
13291;SDS011;6714;53.056;8.690;2022-07-22T11:23:40;1.60;;;1.40;;
13291;SDS011;6714;53.056;8.690;2022-07-22T11:26:26;1.20;;;1.20;;
13291;SDS011;6714;53.056;8.690;2022-07-22T11:29:15;1.65;;;1.35;;
13291;SDS011;6714;53.056;8.690;2022-07-22T11:31:58;1.33;;;1.23;;
13291;SDS011;6714;53.056;8.690;2022-07-22T11:34:41;1.73;;;1.50;;
13291;SDS011;6714;53.056;8.690;2022-07-22T11:37:26;2.13;;;1.30;;
13291;SDS011;6714;53.056;8.690;2022-07-22T11:40:09;1.38;;;1.27;;
13291;SDS011;6714;53.056;8.690;2022-07-22T11:43:01;1.48;;;1.35;;
13291;SDS011;6714;53.056;8.690;2022-07-22T11:45:54;1.38;;;1.27;;
13291;SDS011;6714;53.056;8.690;2022-07-22T11:48:36;1.23;;;1.13;;
13291;SDS011;6714;53.056;8.690;2022-07-22T11:51:19;1.33;;;1.23;;
13291;SDS011;6714;53.056;8.690;2022-07-22T11:54:02;1.85;;;1.17;;
13291;SDS011;6714;53.056;8.690;2022-07-22T11:56:46;2.08;;;1.33;;
13291;SDS011;6714;53.056;8.690;2022-07-22T11:59:32;1.55;;;1.45;;
13291;SDS011;6714;53.056;8.690;2022-07-22T12:02:14;1.10;;;1.00;;
13291;SDS011;6714;53.056;8.690;2022-07-22T12:04:57;1.42;;;1.33;;
13291;SDS011;6714;53.056;8.690;2022-07-22T12:07:39;1.58;;;1.25;;
13291;SDS011;6714;53.056;8.690;2022-07-22T12:10:21;2.15;;;1.27;;
13291;SDS011;6714;53.056;8.690;2022-07-22T12:13:03;1.50;;;1.40;;
13291;SDS011;6714;53.056;8.690;2022-07-22T12:15:47;1.25;;;1.10;;
13291;SDS011;6714;53.056;8.690;2022-07-22T12:18:29;1.30;;;1.20;;
13291;SDS011;6714;53.056;8.690;2022-07-22T12:21:11;1.20;;;1.10;;
13291;SDS011;6714;53.056;8.690;2022-07-22T12:23:55;1.48;;;1.17;;
13291;SDS011;6714;53.056;8.690;2022-07-22T12:26:38;1.77;;;1.17;;
13291;SDS011;6714;53.056;8.690;2022-07-22T12:29:22;1.45;;;1.25;;
13291;SDS011;6714;53.056;8.690;2022-07-22T12:32:07;2.08;;;1.40;;
13291;SDS011;6714;53.056;8.690;2022-07-22T12:34:55;1.52;;;1.23;;
13291;SDS011;6714;53.056;8.690;2022-07-22T12:37:41;1.17;;;1.10;;
13291;SDS011;6714;53.056;8.690;2022-07-22T12:40:23;1.35;;;1.20;;
13291;SDS011;6714;53.056;8.690;2022-07-22T12:43:06;1.25;;;1.15;;
13291;SDS011;6714;53.056;8.690;2022-07-22T12:45:48;1.10;;;1.00;;
13291;SDS011;6714;53.056;8.690;2022-07-22T12:48:32;1.27;;;1.10;;
13291;SDS011;6714;53.056;8.690;2022-07-22T12:51:14;0.98;;;0.98;;
13291;SDS011;6714;53.056;8.690;2022-07-22T12:53:57;1.92;;;1.20;;
13291;SDS011;6714;53.056;8.690;2022-07-22T12:56:39;1.65;;;1.38;;
13291;SDS011;6714;53.056;8.690;2022-07-22T12:59:22;1.20;;;1.17;;
13291;SDS011;6714;53.056;8.690;2022-07-22T13:02:04;1.15;;;1.15;;
13291;SDS011;6714;53.056;8.690;2022-07-22T13:04:47;1.63;;;1.50;;
13291;SDS011;6714;53.056;8.690;2022-07-22T13:07:29;1.25;;;1.15;;
13291;SDS011;6714;53.056;8.690;2022-07-22T13:10:12;1.10;;;1.00;;
13291;SDS011;6714;53.056;8.690;2022-07-22T13:12:55;2.05;;;1.30;;
13291;SDS011;6714;53.056;8.690;2022-07-22T13:15:37;1.30;;;1.20;;
13291;SDS011;6714;53.056;8.690;2022-07-22T13:18:19;2.15;;;1.40;;
13291;SDS011;6714;53.056;8.690;2022-07-22T13:21:03;1.70;;;1.30;;
13291;SDS011;6714;53.056;8.690;2022-07-22T13:23:45;1.25;;;1.17;;
13291;SDS011;6714;53.056;8.690;2022-07-22T13:26:27;1.33;;;1.15;;
13291;SDS011;6714;53.056;8.690;2022-07-22T13:29:10;1.42;;;1.13;;
13291;SDS011;6714;53.056;8.690;2022-07-22T13:31:52;2.53;;;1.40;;
13291;SDS011;6714;53.056;8.690;2022-07-22T13:34:34;1.40;;;1.30;;
13291;SDS011;6714;53.056;8.690;2022-07-22T13:37:18;1.20;;;1.10;;
13291;SDS011;6714;53.056;8.690;2022-07-22T13:40:00;2.15;;;1.30;;
13291;SDS011;6714;53.056;8.690;2022-07-22T13:42:42;1.08;;;1.08;;
13291;SDS011;6714;53.056;8.690;2022-07-22T13:45:24;1.20;;;1.00;;
13291;SDS011;6714;53.056;8.690;2022-07-22T13:48:06;1.00;;;1.00;;
13291;SDS011;6714;53.056;8.690;2022-07-22T13:50:48;1.20;;;1.15;;
13291;SDS011;6714;53.056;8.690;2022-07-22T13:53:32;1.23;;;1.20;;
13291;SDS011;6714;53.056;8.690;2022-07-22T13:56:14;1.02;;;1.02;;
13291;SDS011;6714;53.056;8.690;2022-07-22T13:58:56;1.33;;;1.13;;
13291;SDS011;6714;53.056;8.690;2022-07-22T14:01:39;2.33;;;1.48;;
13291;SDS011;6714;53.056;8.690;2022-07-22T14:04:21;1.38;;;1.15;;
13291;SDS011;6714;53.056;8.690;2022-07-22T14:07:03;1.95;;;1.10;;
13291;SDS011;6714;53.056;8.690;2022-07-22T14:09:47;1.20;;;1.10;;
13291;SDS011;6714;53.056;8.690;2022-07-22T14:12:29;1.73;;;1.38;;
13291;SDS011;6714;53.056;8.690;2022-07-22T14:15:11;1.08;;;0.98;;
13291;SDS011;6714;53.056;8.690;2022-07-22T14:17:54;3.03;;;1.45;;
13291;SDS011;6714;53.056;8.690;2022-07-22T14:20:37;1.10;;;1.10;;
13291;SDS011;6714;53.056;8.690;2022-07-22T14:23:20;1.25;;;1.15;;
13291;SDS011;6714;53.056;8.690;2022-07-22T14:26:04;1.77;;;1.02;;
13291;SDS011;6714;53.056;8.690;2022-07-22T14:28:47;1.05;;;0.95;;
13291;SDS011;6714;53.056;8.690;2022-07-22T14:31:29;1.20;;;1.10;;
13291;SDS011;6714;53.056;8.690;2022-07-22T14:34:11;1.10;;;1.10;;
13291;SDS011;6714;53.056;8.690;2022-07-22T14:36:54;1.17;;;1.00;;
13291;SDS011;6714;53.056;8.690;2022-07-22T14:39:36;1.13;;;1.10;;
13291;SDS011;6714;53.056;8.690;2022-07-22T14:42:19;2.33;;;1.40;;
13291;SDS011;6714;53.056;8.690;2022-07-22T14:45:02;1.67;;;1.15;;
13291;SDS011;6714;53.056;8.690;2022-07-22T14:47:44;1.90;;;1.10;;
13291;SDS011;6714;53.056;8.690;2022-07-22T14:50:26;1.40;;;1.13;;
13291;SDS011;6714;53.056;8.690;2022-07-22T14:53:08;1.85;;;1.55;;
13291;SDS011;6714;53.056;8.690;2022-07-22T14:55:50;1.40;;;1.30;;
13291;SDS011;6714;53.056;8.690;2022-07-22T14:58:34;1.35;;;1.10;;
13291;SDS011;6714;53.056;8.690;2022-07-22T15:01:16;1.08;;;0.95;;
13291;SDS011;6714;53.056;8.690;2022-07-22T15:03:58;1.45;;;1.08;;
13291;SDS011;6714;53.056;8.690;2022-07-22T15:06:40;1.23;;;1.08;;
13291;SDS011;6714;53.056;8.690;2022-07-22T15:09:23;1.17;;;1.05;;
13291;SDS011;6714;53.056;8.690;2022-07-22T15:12:05;1.20;;;1.17;;
13291;SDS011;6714;53.056;8.690;2022-07-22T15:14:48;1.10;;;1.10;;
13291;SDS011;6714;53.056;8.690;2022-07-22T15:17:33;1.95;;;1.23;;
13291;SDS011;6714;53.056;8.690;2022-07-22T15:20:15;1.30;;;1.00;;
13291;SDS011;6714;53.056;8.690;2022-07-22T15:22:57;2.10;;;1.30;;
13291;SDS011;6714;53.056;8.690;2022-07-22T15:25:40;1.50;;;1.03;;
13291;SDS011;6714;53.056;8.690;2022-07-22T15:28:23;1.30;;;1.20;;
13291;SDS011;6714;53.056;8.690;2022-07-22T15:31:07;1.77;;;1.20;;
13291;SDS011;6714;53.056;8.690;2022-07-22T15:33:49;1.80;;;1.20;;
13291;SDS011;6714;53.056;8.690;2022-07-22T15:36:31;1.43;;;1.20;;
13291;SDS011;6714;53.056;8.690;2022-07-22T15:39:14;1.87;;;1.37;;
13291;SDS011;6714;53.056;8.690;2022-07-22T15:41:56;1.77;;;1.37;;
13291;SDS011;6714;53.056;8.690;2022-07-22T15:44:38;1.63;;;1.20;;
13291;SDS011;6714;53.056;8.690;2022-07-22T15:47:21;1.30;;;1.20;;
13291;SDS011;6714;53.056;8.690;2022-07-22T15:50:04;1.03;;;0.93;;
13291;SDS011;6714;53.056;8.690;2022-07-22T15:52:47;1.13;;;1.10;;
13291;SDS011;6714;53.056;8.690;2022-07-22T15:55:29;1.87;;;1.23;;
13291;SDS011;6714;53.056;8.690;2022-07-22T15:58:11;1.60;;;1.23;;
13291;SDS011;6714;53.056;8.690;2022-07-22T16:01:11;1.13;;;1.03;;
13291;SDS011;6714;53.056;8.690;2022-07-22T16:03:54;1.60;;;1.07;;
13291;SDS011;6714;53.056;8.690;2022-07-22T16:06:36;1.30;;;1.20;;
13291;SDS011;6714;53.056;8.690;2022-07-22T16:09:19;1.57;;;1.20;;
13291;SDS011;6714;53.056;8.690;2022-07-22T16:12:01;1.33;;;1.10;;
13291;SDS011;6714;53.056;8.690;2022-07-22T16:14:43;1.17;;;1.10;;
13291;SDS011;6714;53.056;8.690;2022-07-22T16:17:25;1.80;;;1.20;;
13291;SDS011;6714;53.056;8.690;2022-07-22T16:20:09;1.27;;;1.07;;
13291;SDS011;6714;53.056;8.690;2022-07-22T16:22:51;1.40;;;1.30;;
13291;SDS011;6714;53.056;8.690;2022-07-22T16:25:34;1.97;;;1.10;;
13291;SDS011;6714;53.056;8.690;2022-07-22T16:28:16;1.93;;;1.20;;
13291;SDS011;6714;53.056;8.690;2022-07-22T16:30:58;2.13;;;1.20;;
13291;SDS011;6714;53.056;8.690;2022-07-22T16:33:40;1.90;;;1.10;;
13291;SDS011;6714;53.056;8.690;2022-07-22T16:36:24;2.03;;;1.40;;
13291;SDS011;6714;53.056;8.690;2022-07-22T16:39:06;2.30;;;1.30;;
13291;SDS011;6714;53.056;8.690;2022-07-22T16:41:48;1.43;;;1.30;;
13291;SDS011;6714;53.056;8.690;2022-07-22T16:44:30;2.33;;;1.20;;